Terminal Aerodrome Forecast
Issued by NWS Duluth, MN

Home | Current Version | Previous Version | Text Only | Print | Product List | Glossary On
Versions: 1 2 3 4 5 6 7 8 9 10 11 12 13 14 15 16 17 18 19 20 21 22 23 24 25 26 27 28 29 30 31 32 33 34 35 36 37 38
046
FTUS43 KDLH 240620 AAA
TAFDLH
TAF AMD
KDLH 240620Z 2406/2506 32005KT 6SM -SN BKN006 OVC018
     FM240900 32004KT 5SM BR VCSH OVC006
     FM241500 34004KT P6SM OVC012
     FM242100 02005KT P6SM SCT015 BKN025
     FM250200 01005KT 5SM -SN OVC015=

USA.gov is the U.S. government's official web portal to all federal, state and local government web resources and services.